createdAt,value
2022-09-12T00:02:12.203Z,6.65
2022-09-12T00:04:39.469Z,6.78
2022-09-12T00:07:06.679Z,7.80
2022-09-12T00:09:34.185Z,7.85
2022-09-12T00:12:01.537Z,7.40
2022-09-12T00:14:28.883Z,7.88
2022-09-12T00:16:58.825Z,6.28
2022-09-12T00:19:26.787Z,8.65
2022-09-12T00:21:54.041Z,8.60
2022-09-12T00:24:21.798Z,7.28
2022-09-12T00:26:49.398Z,6.25
2022-09-12T00:29:17.949Z,7.95
2022-09-12T00:31:45.620Z,6.35
2022-09-12T00:34:13.048Z,6.82
2022-09-12T00:36:40.878Z,8.68
2022-09-12T00:39:09.265Z,7.95
2022-09-12T00:41:37.970Z,8.32
2022-09-12T00:44:25.213Z,9.45
2022-09-12T00:46:57.750Z,9.23
2022-09-12T00:49:28.089Z,10.23
2022-09-12T00:52:04.508Z,8.35
2022-09-12T00:54:34.595Z,9.38
2022-09-12T00:57:05.561Z,10.18
2022-09-12T00:59:34.885Z,7.80
2022-09-12T01:02:02.384Z,7.70
2022-09-12T01:04:29.907Z,8.23
2022-09-12T01:06:57.926Z,7.10
2022-09-12T01:09:26.073Z,9.32
2022-09-12T01:11:54.217Z,7.85
2022-09-12T01:14:21.666Z,6.85
2022-09-12T01:16:49.835Z,6.50
2022-09-12T01:19:36.111Z,7.50
2022-09-12T01:22:03.364Z,6.95
2022-09-12T01:24:33.707Z,6.80
2022-09-12T01:27:00.960Z,6.35
2022-09-12T01:29:47.041Z,7.47
2022-09-12T01:32:17.449Z,7.35
2022-09-12T01:34:50.645Z,6.30
2022-09-12T01:37:17.910Z,6.80
2022-09-12T01:40:04.393Z,7.90
2022-09-12T01:42:41.083Z,7.35
2022-09-12T01:45:11.505Z,7.43
2022-09-12T01:47:42.716Z,6.80
2022-09-12T01:50:24.640Z,7.63
2022-09-12T01:52:51.993Z,9.48
2022-09-12T01:55:22.698Z,6.50
2022-09-12T01:57:58.253Z,6.82
2022-09-12T02:00:25.741Z,9.27
2022-09-12T02:02:58.098Z,6.95
2022-09-12T02:05:31.158Z,6.82
2022-09-12T02:08:03.312Z,7.35
2022-09-12T02:10:32.919Z,7.53
2022-09-12T02:13:14.098Z,6.05
2022-09-12T02:15:44.715Z,6.97
2022-09-12T02:18:14.609Z,8.00
2022-09-12T02:20:48.421Z,6.50
2022-09-12T02:23:27.704Z,7.07
2022-09-12T02:25:58.048Z,10.80
2022-09-12T02:28:28.367Z,7.32
2022-09-12T02:30:55.621Z,6.15
2022-09-12T02:33:52.731Z,6.85
2022-09-12T02:36:29.744Z,6.65
2022-09-12T02:38:57.031Z,9.38
2022-09-12T02:41:24.719Z,9.05
2022-09-12T02:43:52.753Z,8.15
2022-09-12T02:46:24.324Z,7.82
2022-09-12T02:48:51.770Z,7.03
2022-09-12T02:51:23.375Z,7.28
2022-09-12T02:53:51.023Z,7.50
2022-09-12T02:56:24.655Z,7.43
2022-09-12T02:58:53.529Z,10.13
2022-09-12T03:01:31.736Z,8.48
2022-09-12T03:03:59.546Z,9.13
2022-09-12T03:06:26.824Z,7.72
2022-09-12T03:09:12.967Z,7.80
2022-09-12T03:11:46.670Z,7.90
2022-09-12T03:14:40.571Z,9.75
2022-09-12T03:17:07.820Z,8.32
2022-09-12T03:19:47.702Z,7.43
2022-09-12T03:22:18.826Z,8.02
2022-09-12T03:24:51.786Z,7.05
2022-09-12T03:27:19.250Z,7.75
2022-09-12T03:29:48.308Z,6.80
2022-09-12T03:32:16.095Z,9.35
2022-09-12T03:34:43.526Z,9.15
2022-09-12T03:37:10.805Z,7.90
2022-09-12T03:39:38.375Z,7.85
2022-09-12T03:42:08.546Z,12.10
2022-09-12T03:44:35.846Z,8.02
2022-09-12T03:47:03.205Z,9.43
2022-09-12T03:49:30.475Z,8.25
2022-09-12T03:51:57.757Z,9.57
2022-09-12T03:54:25.223Z,7.47
2022-09-12T03:56:52.734Z,8.25
2022-09-12T03:59:20.678Z,6.40
2022-09-12T04:01:47.981Z,7.78
2022-09-12T04:04:15.493Z,9.40
2022-09-12T04:06:43.254Z,7.22
2022-09-12T04:09:10.696Z,9.48
2022-09-12T04:11:38.014Z,7.35
2022-09-12T04:14:05.243Z,8.50
2022-09-12T04:16:33.112Z,7.00
2022-09-12T04:19:00.505Z,8.02
2022-09-12T04:21:27.953Z,8.55
2022-09-12T04:23:55.492Z,7.93
2022-09-12T04:26:22.847Z,9.18
2022-09-12T04:28:53.837Z,7.90
2022-09-12T04:31:22.810Z,7.95
2022-09-12T04:33:57.093Z,8.32
2022-09-12T04:36:28.566Z,8.70
2022-09-12T04:38:55.963Z,9.32
2022-09-12T04:41:24.708Z,9.32
2022-09-12T04:43:58.327Z,9.13
2022-09-12T04:46:26.820Z,8.40
2022-09-12T04:48:56.846Z,7.40
2022-09-12T04:51:43.260Z,8.57
2022-09-12T04:54:17.230Z,7.68
2022-09-12T04:56:46.014Z,8.20
2022-09-12T04:59:14.556Z,8.55
2022-09-12T05:01:41.935Z,8.95
2022-09-12T05:04:10.726Z,11.02
2022-09-12T05:06:38.710Z,8.82
2022-09-12T05:09:07.171Z,12.75
2022-09-12T05:12:02.593Z,7.63
2022-09-12T05:14:24.053Z,10.02
2022-09-12T05:16:51.372Z,11.05
2022-09-12T05:19:18.793Z,12.02
2022-09-12T05:21:46.129Z,12.32
2022-09-12T05:24:13.632Z,12.75
2022-09-12T05:26:40.935Z,12.73
2022-09-12T05:29:08.189Z,12.88
2022-09-12T05:31:35.674Z,13.00
2022-09-12T05:34:10.386Z,11.38
2022-09-12T05:36:38.729Z,12.63
2022-09-12T05:39:06.048Z,10.95
2022-09-12T05:41:34.034Z,10.73
2022-09-12T05:44:02.908Z,12.32
2022-09-12T05:46:31.297Z,11.70
2022-09-12T05:49:02.890Z,10.90
2022-09-12T05:51:32.826Z,11.93
2022-09-12T05:54:01.424Z,11.05
2022-09-12T05:56:29.515Z,11.98
2022-09-12T05:58:58.833Z,15.40
2022-09-12T06:01:27.329Z,10.75
2022-09-12T06:03:56.107Z,12.35
2022-09-12T06:06:24.556Z,11.18
2022-09-12T06:08:53.636Z,12.02
2022-09-12T06:11:23.207Z,9.63
2022-09-12T06:13:51.278Z,11.40
2022-09-12T06:16:23.153Z,13.25
2022-09-12T06:18:51.826Z,16.45
2022-09-12T06:21:19.655Z,11.88
2022-09-12T06:23:48.112Z,12.25
2022-09-12T06:26:16.824Z,11.93
2022-09-12T06:28:48.025Z,11.50
2022-09-12T06:31:17.000Z,13.40
2022-09-12T06:33:45.683Z,10.55
2022-09-12T06:36:14.585Z,8.48
2022-09-12T06:38:41.812Z,11.60
2022-09-12T06:41:10.979Z,10.57
2022-09-12T06:43:38.410Z,10.48
2022-09-12T06:46:06.293Z,9.60
2022-09-12T06:48:33.779Z,9.77
2022-09-12T06:51:02.474Z,9.82
2022-09-12T06:53:37.394Z,10.02
2022-09-12T06:56:14.586Z,10.23
2022-09-12T06:58:47.708Z,8.85
2022-09-12T07:01:22.046Z,11.30
2022-09-12T07:03:56.917Z,9.23
2022-09-12T07:06:47.997Z,10.00
2022-09-12T07:09:28.256Z,8.85
2022-09-12T07:12:02.026Z,9.48
2022-09-12T07:14:29.282Z,8.52
2022-09-12T07:16:56.681Z,8.48
2022-09-12T07:19:24.785Z,8.88
2022-09-12T07:21:56.626Z,8.35
2022-09-12T07:24:26.255Z,9.00
2022-09-12T07:26:53.774Z,8.95
2022-09-12T07:29:37.717Z,8.82
2022-09-12T07:32:06.039Z,9.10
2022-09-12T07:34:33.691Z,7.50
2022-09-12T07:37:01.123Z,8.05
2022-09-12T07:39:28.414Z,9.27
2022-09-12T07:41:55.964Z,8.18
2022-09-12T07:44:23.709Z,9.50
2022-09-12T07:46:51.010Z,8.68
2022-09-12T07:49:20.954Z,7.70
2022-09-12T07:51:48.201Z,8.02
2022-09-12T07:54:16.170Z,9.10
2022-09-12T07:56:43.612Z,9.05
2022-09-12T07:59:10.941Z,8.35
2022-09-12T08:01:39.947Z,9.05
2022-09-12T08:04:07.323Z,10.18
2022-09-12T08:06:36.521Z,9.32
2022-09-12T08:09:04.816Z,10.68
2022-09-12T08:11:32.068Z,10.55
2022-09-12T08:14:00.164Z,7.45
2022-09-12T08:16:29.648Z,8.27
2022-09-12T08:18:57.237Z,9.68
2022-09-12T08:21:25.628Z,9.27
2022-09-12T08:23:57.177Z,9.30
2022-09-12T08:26:24.939Z,7.55
2022-09-12T08:28:53.303Z,7.45
2022-09-12T08:31:21.280Z,7.32
2022-09-12T08:33:49.580Z,7.20
2022-09-12T08:36:18.310Z,6.47
2022-09-12T08:38:46.920Z,7.28
2022-09-12T08:41:30.962Z,5.40
2022-09-12T08:43:58.314Z,5.20
2022-09-12T08:46:28.966Z,5.43
2022-09-12T08:48:58.940Z,5.90
2022-09-12T08:51:27.036Z,6.13
2022-09-12T08:53:56.595Z,5.28
2022-09-12T08:56:26.484Z,6.68
2022-09-12T08:58:55.738Z,5.63
2022-09-12T09:01:23.104Z,6.47
2022-09-12T09:04:09.496Z,5.22
2022-09-12T09:06:36.819Z,6.65
2022-09-12T09:09:12.558Z,4.50
2022-09-12T09:11:58.701Z,5.57
2022-09-12T09:14:49.758Z,7.95
2022-09-12T09:17:39.639Z,3.78
2022-09-12T09:20:07.027Z,3.95
2022-09-12T09:22:41.268Z,3.47
2022-09-12T09:25:22.704Z,3.35
2022-09-12T09:28:13.319Z,3.67
2022-09-12T09:30:42.347Z,2.90
2022-09-12T09:33:16.437Z,4.38
2022-09-12T09:35:55.994Z,2.55
2022-09-12T09:38:35.813Z,3.92
2022-09-12T09:41:03.307Z,3.58
2022-09-12T09:43:31.334Z,3.00
2022-09-12T09:46:02.280Z,2.45
2022-09-12T09:48:33.748Z,3.53
2022-09-12T09:51:02.212Z,3.53
2022-09-12T09:53:29.446Z,2.90
2022-09-12T09:55:57.592Z,2.88
2022-09-12T09:58:32.276Z,2.70
2022-09-12T10:01:01.140Z,3.15
2022-09-12T10:03:36.142Z,3.10
2022-09-12T10:08:32.182Z,3.00
2022-09-12T10:11:02.568Z,3.40
2022-09-12T10:13:30.151Z,3.20
2022-09-12T10:15:58.908Z,2.30
2022-09-12T10:18:41.114Z,2.50
2022-09-12T10:21:20.200Z,3.45
2022-09-12T10:23:48.648Z,4.32
2022-09-12T10:26:17.377Z,2.45
2022-09-12T10:28:50.697Z,2.03
2022-09-12T10:31:29.048Z,2.92
2022-09-12T10:34:00.951Z,2.10
2022-09-12T10:36:36.949Z,1.98
2022-09-12T10:39:04.934Z,2.28
2022-09-12T10:41:41.473Z,3.05
2022-09-12T10:44:10.908Z,1.65
2022-09-12T10:46:38.242Z,2.22
2022-09-12T10:49:21.674Z,1.42
2022-09-12T10:51:51.484Z,2.15
2022-09-12T10:54:21.467Z,2.33
2022-09-12T10:56:51.760Z,1.85
2022-09-12T10:59:31.484Z,2.10
2022-09-12T11:02:05.717Z,2.00
2022-09-12T11:04:36.433Z,1.77
2022-09-12T11:07:22.324Z,1.70
2022-09-12T11:09:59.302Z,1.90
2022-09-12T11:12:36.493Z,2.22
2022-09-12T11:15:22.470Z,1.58
2022-09-12T11:18:10.381Z,1.77
2022-09-12T11:20:43.597Z,1.73
2022-09-12T11:23:29.636Z,2.35
2022-09-12T11:26:12.247Z,1.27
2022-09-12T11:28:54.823Z,2.70
2022-09-12T11:31:42.433Z,1.40
2022-09-12T11:34:11.314Z,1.45
2022-09-12T11:36:38.548Z,1.70
2022-09-12T11:39:13.220Z,1.95
2022-09-12T11:41:50.789Z,3.72
2022-09-12T11:44:27.750Z,1.38
2022-09-12T11:46:55.190Z,1.80
2022-09-12T11:49:25.637Z,1.63
2022-09-12T11:52:07.936Z,2.47
2022-09-12T11:55:11.285Z,2.15
2022-09-12T11:57:38.546Z,1.70
2022-09-12T12:00:10.617Z,2.95
2022-09-12T12:02:57.544Z,1.90
2022-09-12T12:05:24.859Z,1.88
2022-09-12T12:07:52.094Z,2.10
2022-09-12T12:10:25.149Z,1.90
2022-09-12T12:12:53.878Z,1.75
2022-09-12T12:15:22.044Z,4.57
2022-09-12T12:18:03.317Z,2.08
2022-09-12T12:20:30.694Z,1.92
2022-09-12T12:22:58.046Z,2.40
2022-09-12T12:25:42.734Z,3.15
2022-09-12T12:28:10.182Z,1.60
2022-09-12T12:30:58.483Z,2.38
2022-09-12T12:33:26.646Z,1.92
2022-09-12T12:36:00.214Z,2.40
2022-09-12T12:38:27.461Z,2.42
2022-09-12T12:40:56.363Z,1.50
2022-09-12T12:43:34.965Z,1.50
2022-09-12T12:46:05.055Z,2.35
2022-09-12T12:48:34.598Z,2.15
2022-09-12T12:51:21.468Z,1.55
2022-09-12T12:53:48.769Z,1.92
2022-09-12T12:56:28.487Z,1.77
2022-09-12T12:59:00.859Z,2.45
2022-09-12T13:01:28.387Z,1.88
2022-09-12T13:03:55.718Z,2.13
2022-09-12T13:06:37.241Z,3.83
2022-09-12T13:09:09.557Z,2.72
2022-09-12T13:11:38.770Z,3.33
2022-09-12T13:14:09.458Z,2.95
2022-09-12T13:16:38.081Z,1.80
2022-09-12T13:19:07.349Z,2.75
2022-09-12T13:21:34.832Z,1.70
2022-09-12T13:24:02.782Z,1.33
2022-09-12T13:26:34.128Z,1.92
2022-09-12T13:29:34.199Z,2.60
2022-09-12T13:32:02.667Z,2.03
2022-09-12T13:34:35.144Z,1.92
2022-09-12T13:37:21.322Z,1.90
2022-09-12T13:40:01.085Z,2.85
2022-09-12T13:42:28.338Z,1.67
2022-09-12T13:44:59.658Z,4.20
2022-09-12T13:47:32.911Z,1.70
2022-09-12T13:50:00.787Z,2.40
2022-09-12T13:52:30.945Z,2.05
2022-09-12T13:54:59.598Z,5.20
2022-09-12T13:57:35.021Z,1.60
2022-09-12T14:00:06.095Z,1.60
2022-09-12T14:02:35.519Z,1.77
2022-09-12T14:05:10.542Z,1.60
2022-09-12T14:07:59.199Z,1.60
2022-09-12T14:10:34.726Z,1.75
2022-09-12T14:13:02.863Z,2.88
2022-09-12T14:15:32.417Z,3.60
2022-09-12T14:18:01.713Z,2.75
2022-09-12T14:20:32.635Z,1.75
2022-09-12T14:23:04.640Z,1.70
2022-09-12T14:25:41.574Z,2.20
2022-09-12T14:28:13.855Z,2.03
2022-09-12T14:30:41.259Z,2.75
2022-09-12T14:33:13.850Z,1.83
2022-09-12T14:35:48.913Z,1.88
2022-09-12T14:38:16.110Z,1.90
2022-09-12T14:40:44.644Z,1.52
2022-09-12T14:43:20.294Z,2.67
2022-09-12T14:45:53.739Z,1.90
2022-09-12T14:48:21.358Z,1.73
2022-09-12T14:50:52.921Z,1.58
2022-09-12T14:53:25.664Z,1.80
2022-09-12T14:56:07.114Z,1.52
2022-09-12T15:01:24.952Z,6.38
2022-09-12T15:03:54.021Z,1.70
2022-09-12T15:06:26.132Z,2.30
2022-09-12T15:08:57.591Z,1.98
2022-09-12T15:11:25.170Z,6.93
2022-09-12T15:13:52.590Z,2.50
2022-09-12T15:16:23.063Z,2.13
2022-09-12T15:18:50.638Z,7.80
2022-09-12T15:21:20.099Z,1.73
2022-09-12T15:23:48.623Z,1.95
2022-09-12T15:26:17.325Z,1.77
2022-09-12T15:28:44.932Z,1.95
2022-09-12T15:31:26.465Z,2.83
2022-09-12T15:33:55.092Z,1.58
2022-09-12T15:36:23.127Z,1.98
2022-09-12T15:38:51.010Z,1.58
2022-09-12T15:41:22.399Z,1.33
2022-09-12T15:43:50.481Z,1.70
2022-09-12T15:46:18.711Z,2.20
2022-09-12T15:48:46.143Z,2.85
2022-09-12T15:51:15.638Z,4.35
2022-09-12T15:53:43.574Z,3.35
2022-09-12T15:56:10.883Z,1.90
2022-09-12T15:58:49.715Z,2.00
2022-09-12T16:01:25.222Z,1.90
2022-09-12T16:03:53.835Z,2.25
2022-09-12T16:06:22.354Z,2.25
2022-09-12T16:08:49.804Z,1.80
2022-09-12T16:11:21.848Z,2.10
2022-09-12T16:13:49.730Z,1.80
2022-09-12T16:16:17.052Z,4.85
2022-09-12T16:18:44.624Z,3.13
2022-09-12T16:21:15.306Z,1.80
2022-09-12T16:23:43.766Z,2.38
2022-09-12T16:26:11.374Z,2.13
2022-09-12T16:28:38.990Z,3.30
2022-09-12T16:31:07.163Z,2.33
2022-09-12T16:33:35.231Z,2.20
2022-09-12T16:36:12.736Z,1.58
2022-09-12T16:38:47.515Z,2.25
2022-09-12T16:43:43.135Z,2.13
2022-09-12T16:46:10.570Z,5.93
2022-09-12T16:48:38.284Z,1.60
2022-09-12T16:51:07.448Z,3.33
2022-09-12T16:53:36.193Z,1.75
2022-09-12T16:56:04.030Z,1.67
2022-09-12T16:58:33.523Z,2.40
2022-09-12T17:01:08.454Z,1.50
2022-09-12T17:03:38.660Z,2.88
2022-09-12T17:06:10.320Z,4.10
2022-09-12T17:08:38.973Z,3.22
2022-09-12T17:11:08.270Z,2.22
2022-09-12T17:14:00.095Z,2.65
2022-09-12T17:16:23.624Z,2.20
2022-09-12T17:18:52.076Z,2.00
2022-09-12T17:21:20.106Z,4.05
2022-09-12T17:23:47.902Z,2.13
2022-09-12T17:26:15.838Z,1.80
2022-09-12T17:28:44.255Z,4.65
2022-09-12T17:31:16.266Z,2.83
2022-09-12T17:33:43.736Z,3.70
2022-09-12T17:36:12.385Z,3.05
2022-09-12T17:38:40.485Z,1.73
2022-09-12T17:41:08.454Z,4.50
2022-09-12T17:43:38.027Z,3.15
2022-09-12T17:46:06.021Z,3.17
2022-09-12T17:48:33.600Z,5.03
2022-09-12T17:51:07.395Z,2.63
2022-09-12T17:53:34.963Z,2.90
2022-09-12T17:56:05.712Z,2.88
2022-09-12T17:58:33.861Z,2.45
2022-09-12T18:01:24.226Z,3.25
2022-09-12T18:03:54.991Z,2.10
2022-09-12T18:06:22.805Z,3.35
2022-09-12T18:08:50.168Z,2.25
2022-09-12T18:11:17.808Z,2.50
2022-09-12T18:13:45.427Z,2.30
2022-09-12T18:16:13.858Z,2.28
2022-09-12T18:18:41.377Z,3.00
2022-09-12T18:21:09.644Z,2.72
2022-09-12T18:23:36.887Z,2.63
2022-09-12T18:26:08.399Z,3.95
2022-09-12T18:28:38.330Z,2.30
2022-09-12T18:31:10.255Z,2.20
2022-09-12T18:33:38.674Z,3.13
2022-09-12T18:36:06.598Z,3.40
2022-09-12T18:38:34.650Z,3.15
2022-09-12T18:41:02.813Z,3.08
2022-09-12T18:43:30.257Z,3.47
2022-09-12T18:45:57.558Z,3.13
2022-09-12T18:48:24.965Z,3.85
2022-09-12T18:50:52.208Z,3.70
2022-09-12T18:53:19.861Z,4.85
2022-09-12T18:55:47.133Z,2.88
2022-09-12T18:58:14.449Z,3.33
2022-09-12T19:00:41.721Z,4.05
2022-09-12T19:03:09.157Z,3.38
2022-09-12T19:05:36.373Z,2.55
2022-09-12T19:08:03.688Z,2.97
2022-09-12T19:10:31.067Z,2.70
2022-09-12T19:12:59.189Z,2.85
2022-09-12T19:15:26.613Z,2.92
2022-09-12T19:17:54.134Z,3.03
2022-09-12T19:20:22.212Z,4.47
2022-09-12T19:22:49.457Z,3.13
2022-09-12T19:25:16.892Z,3.33
2022-09-12T19:27:44.213Z,3.13
2022-09-12T19:30:11.851Z,2.95
2022-09-12T19:32:39.121Z,4.20
2022-09-12T19:35:06.709Z,3.10
2022-09-12T19:37:34.158Z,3.72
2022-09-12T19:40:01.453Z,2.80
2022-09-12T19:42:28.728Z,4.03
2022-09-12T19:44:56.255Z,3.42
2022-09-12T19:47:25.290Z,5.20
2022-09-12T19:49:52.617Z,3.30
2022-09-12T19:52:19.868Z,3.13
2022-09-12T19:54:47.368Z,3.85
2022-09-12T19:57:14.685Z,3.40
2022-09-12T19:59:44.837Z,3.08
2022-09-12T20:02:12.320Z,4.38
2022-09-12T20:04:39.782Z,3.15
2022-09-12T20:07:07.040Z,3.90
2022-09-12T20:09:34.702Z,3.50
2022-09-12T20:12:03.040Z,6.30
2022-09-12T20:14:30.433Z,3.75
2022-09-12T20:16:57.863Z,5.70
2022-09-12T20:19:25.104Z,3.70
2022-09-12T20:21:52.536Z,8.18
2022-09-12T20:24:19.858Z,4.03
2022-09-12T20:26:47.322Z,5.47
2022-09-12T20:29:14.637Z,3.40
2022-09-12T20:31:42.874Z,4.13
2022-09-12T20:34:20.417Z,3.78
2022-09-12T20:36:49.060Z,3.65
2022-09-12T20:39:17.803Z,3.55
2022-09-12T20:41:45.405Z,3.20
2022-09-12T20:44:13.207Z,3.95
2022-09-12T20:46:40.632Z,4.30
2022-09-12T20:49:09.030Z,4.20
2022-09-12T20:51:36.999Z,4.40
2022-09-12T20:54:05.399Z,5.75
2022-09-12T20:56:34.147Z,4.43
2022-09-12T20:59:02.098Z,4.68
2022-09-12T21:01:31.429Z,4.75
2022-09-12T21:04:00.084Z,4.10
2022-09-12T21:06:27.612Z,4.30
2022-09-12T21:08:58.810Z,3.80
2022-09-12T21:11:26.262Z,3.30
2022-09-12T21:13:54.097Z,4.57
2022-09-12T21:16:22.403Z,3.30
2022-09-12T21:18:57.309Z,4.13
2022-09-12T21:21:24.746Z,3.30
2022-09-12T21:23:52.071Z,6.30
2022-09-12T21:26:19.379Z,4.07
2022-09-12T21:28:46.669Z,4.38
2022-09-12T21:31:14.352Z,4.25
2022-09-12T21:33:41.897Z,3.67
2022-09-12T21:36:09.737Z,4.05
2022-09-12T21:38:37.063Z,3.38
2022-09-12T21:41:12.062Z,4.78
2022-09-12T21:43:39.704Z,3.78
2022-09-12T21:46:08.230Z,3.63
2022-09-12T21:48:35.791Z,4.55
2022-09-12T21:51:03.742Z,4.97
2022-09-12T21:53:31.395Z,4.10
2022-09-12T21:56:02.480Z,4.22
2022-09-12T21:58:29.760Z,8.10
2022-09-12T22:00:57.281Z,4.10
2022-09-12T22:03:24.749Z,6.90
2022-09-12T22:05:54.217Z,4.28
2022-09-12T22:08:21.447Z,3.78
2022-09-12T22:10:48.939Z,4.30
2022-09-12T22:13:16.193Z,5.45
2022-09-12T22:15:51.116Z,4.38
2022-09-12T22:18:18.551Z,4.68
2022-09-12T22:20:46.637Z,5.15
2022-09-12T22:23:32.604Z,3.97
2022-09-12T22:26:01.526Z,4.38
2022-09-12T22:28:32.452Z,7.35
2022-09-12T22:31:00.210Z,5.30
2022-09-12T22:33:28.271Z,9.05
2022-09-12T22:35:55.765Z,5.95
2022-09-12T22:38:23.025Z,5.45
2022-09-12T22:40:50.501Z,5.43
2022-09-12T22:43:17.751Z,4.75
2022-09-12T22:45:45.174Z,6.00
2022-09-12T22:48:12.897Z,4.00
2022-09-12T22:50:40.152Z,4.07
2022-09-12T22:53:07.379Z,6.95
2022-09-12T22:55:34.936Z,4.93
2022-09-12T22:58:03.925Z,8.02
2022-09-12T23:00:31.231Z,4.90
2022-09-12T23:02:58.757Z,5.10
2022-09-12T23:05:26.087Z,5.10
2022-09-12T23:07:53.618Z,4.70
2022-09-12T23:10:20.900Z,4.68
2022-09-12T23:12:48.316Z,5.68
2022-09-12T23:15:15.522Z,4.25
2022-09-12T23:17:42.969Z,4.80
2022-09-12T23:20:10.289Z,4.15
2022-09-12T23:22:37.569Z,5.03
2022-09-12T23:25:05.276Z,5.53
2022-09-12T23:27:32.584Z,4.45
2022-09-12T23:29:59.822Z,5.10
2022-09-12T23:32:27.671Z,4.82
2022-09-12T23:34:54.895Z,4.18
2022-09-12T23:37:22.298Z,6.03
2022-09-12T23:39:49.876Z,5.60
2022-09-12T23:42:17.588Z,4.65
2022-09-12T23:44:44.835Z,5.18
2022-09-12T23:47:12.286Z,4.68
2022-09-12T23:49:39.803Z,4.47
2022-09-12T23:52:07.012Z,5.85
2022-09-12T23:54:34.549Z,4.30
2022-09-12T23:57:01.812Z,5.63
2022-09-12T23:59:31.139Z,5.38
